createdAt,value
2022-12-09T00:00:34.699Z,100312.63
2022-12-09T00:03:07.668Z,100302.62
2022-12-09T00:05:42.346Z,100311.61
2022-12-09T00:08:15.027Z,100299.83
2022-12-09T00:10:47.828Z,100296.88
2022-12-09T00:13:20.679Z,100291.70
2022-12-09T00:15:54.306Z,100293.42
2022-12-09T00:18:27.805Z,100282.04
2022-12-09T00:21:00.339Z,100282.11
2022-12-09T00:23:32.854Z,100264.75
2022-12-09T00:26:05.536Z,100253.27
2022-12-09T00:28:38.244Z,100250.59
2022-12-09T00:31:15.001Z,100247.53
2022-12-09T00:33:47.858Z,100249.71
2022-12-09T00:36:22.420Z,100257.41
2022-12-09T00:38:56.748Z,100261.03
2022-12-09T00:41:29.498Z,100267.64
2022-12-09T00:44:01.962Z,100285.77
2022-12-09T00:46:35.160Z,100303.70
2022-12-09T00:49:08.404Z,100293.61
2022-12-09T00:51:41.694Z,100299.09
2022-12-09T00:54:14.923Z,100304.27
2022-12-09T00:56:47.776Z,100304.09
2022-12-09T00:59:20.963Z,100298.58
2022-12-09T01:01:54.592Z,100305.22
2022-12-09T01:04:28.057Z,100306.55
2022-12-09T01:07:01.227Z,100297.59
2022-12-09T01:09:35.852Z,100289.45
2022-12-09T01:12:09.261Z,100288.67
2022-12-09T01:14:42.206Z,100268.58
2022-12-09T01:17:15.082Z,100254.63
2022-12-09T01:19:48.803Z,100251.01
2022-12-09T01:22:21.440Z,100251.81
2022-12-09T01:24:54.615Z,100248.62
2022-12-09T01:27:27.678Z,100256.70
2022-12-09T01:30:00.861Z,100261.73
2022-12-09T01:32:33.665Z,100245.61
2022-12-09T01:35:07.257Z,100233.29
2022-12-09T01:37:40.214Z,100241.30
2022-12-09T01:40:17.178Z,100237.68
2022-12-09T01:42:52.137Z,100242.00
2022-12-09T01:45:32.751Z,100232.92
2022-12-09T01:48:17.365Z,100239.84
2022-12-09T01:51:02.348Z,100244.31
2022-12-09T01:53:38.839Z,100236.79
2022-12-09T01:56:25.700Z,100226.33
2022-12-09T01:59:01.941Z,100216.70
2022-12-09T02:01:34.548Z,100234.31
2022-12-09T02:04:08.072Z,100217.03
2022-12-09T02:06:42.048Z,100219.28
2022-12-09T02:09:15.533Z,100211.77
2022-12-09T02:12:13.240Z,100205.02
2022-12-09T02:14:51.242Z,100210.18
2022-12-09T02:17:35.190Z,100208.00
2022-12-09T02:20:27.064Z,100211.38
2022-12-09T02:23:07.465Z,100213.03
2022-12-09T02:25:50.905Z,100223.77
2022-12-09T02:28:37.234Z,100222.09
2022-12-09T02:32:16.358Z,100207.69
2022-12-09T02:35:03.278Z,100212.68
2022-12-09T02:37:41.111Z,100241.72
2022-12-09T02:40:24.228Z,100243.20
2022-12-09T02:42:57.048Z,100233.08
2022-12-09T02:45:29.894Z,100226.59
2022-12-09T02:48:03.053Z,100218.19
2022-12-09T02:50:38.095Z,100218.05
2022-12-09T02:53:12.963Z,100235.08
2022-12-09T02:55:46.423Z,100236.87
2022-12-09T02:58:19.622Z,100233.67
2022-12-09T03:00:52.389Z,100226.86
2022-12-09T03:03:25.372Z,100225.91
2022-12-09T03:06:11.541Z,100232.58
2022-12-09T03:08:51.532Z,100231.81
2022-12-09T03:11:25.596Z,100225.06
2022-12-09T03:14:30.890Z,100226.76
2022-12-09T03:17:08.297Z,100226.16
2022-12-09T03:20:02.311Z,100225.25
2022-12-09T03:22:36.297Z,100233.43
2022-12-09T03:25:31.484Z,100239.89
2022-12-09T03:28:13.857Z,100243.33
2022-12-09T03:30:47.067Z,100231.08
2022-12-09T03:33:20.450Z,100223.00
2022-12-09T03:35:57.721Z,100220.71
2022-12-09T03:38:33.899Z,100232.58
2022-12-09T03:41:30.873Z,100231.10
2022-12-09T03:44:13.912Z,100227.59
2022-12-09T03:46:47.000Z,100222.33
2022-12-09T03:49:20.195Z,100226.57
2022-12-09T03:52:00.320Z,100218.34
2022-12-09T03:54:40.896Z,100217.31
2022-12-09T03:57:18.953Z,100216.36
2022-12-09T03:59:58.613Z,100215.59
2022-12-09T04:02:31.518Z,100223.19
2022-12-09T04:05:04.358Z,100223.46
2022-12-09T04:07:38.067Z,100217.97
2022-12-09T04:10:11.124Z,100215.12
2022-12-09T04:12:44.603Z,100206.34
2022-12-09T04:15:17.556Z,100199.81
2022-12-09T04:17:50.572Z,100197.14
2022-12-09T04:20:23.088Z,100204.37
2022-12-09T04:22:56.895Z,100200.63
2022-12-09T04:25:29.789Z,98831.33
2022-12-09T04:28:02.339Z,100210.59
2022-12-09T04:30:35.084Z,100207.38
2022-12-09T04:33:07.776Z,100201.47
2022-12-09T04:35:41.571Z,100187.35
2022-12-09T04:38:14.174Z,100184.69
2022-12-09T04:40:46.714Z,100183.34
2022-12-09T04:43:19.348Z,100175.72
2022-12-09T04:45:51.955Z,100183.88
2022-12-09T04:48:24.695Z,100176.82
2022-12-09T04:50:57.325Z,100163.62
2022-12-09T04:53:30.004Z,100173.72
2022-12-09T04:56:04.902Z,100179.13
2022-12-09T04:58:38.470Z,100181.34
2022-12-09T05:01:13.153Z,100180.01
2022-12-09T05:03:47.904Z,100175.63
2022-12-09T05:06:22.421Z,100166.73
2022-12-09T05:08:55.308Z,100164.22
2022-12-09T05:11:28.895Z,100171.53
2022-12-09T05:14:03.013Z,100170.41
2022-12-09T05:16:35.796Z,100167.33
2022-12-09T05:19:10.607Z,100167.97
2022-12-09T05:21:44.054Z,100165.75
2022-12-09T05:24:16.780Z,100163.47
2022-12-09T05:26:49.591Z,100169.75
2022-12-09T05:29:23.875Z,100161.75
2022-12-09T05:31:57.407Z,100168.56
2022-12-09T05:34:30.493Z,100162.38
2022-12-09T05:37:03.729Z,100162.70
2022-12-09T05:39:36.362Z,100164.03
2022-12-09T05:42:09.936Z,100163.88
2022-12-09T05:44:42.829Z,100157.52
2022-12-09T05:47:15.720Z,100153.20
2022-12-09T05:49:49.576Z,100150.13
2022-12-09T05:52:22.240Z,100155.00
2022-12-09T05:54:55.469Z,100156.55
2022-12-09T05:57:28.391Z,100164.98
2022-12-09T06:00:00.897Z,100167.80
2022-12-09T06:02:35.872Z,100166.05
2022-12-09T06:05:10.303Z,100172.26
2022-12-09T06:07:44.131Z,100168.56
2022-12-09T06:10:17.674Z,100155.56
2022-12-09T06:12:51.224Z,100150.23
2022-12-09T06:15:29.607Z,100162.31
2022-12-09T06:17:58.792Z,100165.52
2022-12-09T06:20:31.468Z,100155.22
2022-12-09T06:23:15.471Z,100155.95
2022-12-09T06:25:48.434Z,100153.98
2022-12-09T06:28:21.574Z,100154.92
2022-12-09T06:30:54.534Z,100146.53
2022-12-09T06:33:53.663Z,100144.56
2022-12-09T06:36:05.301Z,100142.62
2022-12-09T06:38:38.854Z,100138.84
2022-12-09T06:41:14.262Z,100137.75
2022-12-09T06:43:47.495Z,100140.84
2022-12-09T06:46:26.104Z,100143.09
2022-12-09T06:48:59.383Z,100146.41
2022-12-09T06:51:32.593Z,100150.03
2022-12-09T06:54:07.273Z,100151.44
2022-12-09T06:56:40.434Z,100155.37
2022-12-09T06:59:13.239Z,100152.63
2022-12-09T07:01:46.767Z,100158.35
2022-12-09T07:04:19.696Z,100157.62
2022-12-09T07:06:52.931Z,100151.52
2022-12-09T15:53:07.041Z,99888.85
2022-12-09T15:55:52.923Z,99884.83
2022-12-09T15:58:30.541Z,99888.05
2022-12-09T16:01:03.506Z,99884.04
2022-12-09T16:03:36.885Z,99878.69
2022-12-09T16:06:10.300Z,99884.04
2022-12-09T16:08:46.811Z,99884.91
2022-12-09T16:11:43.538Z,99886.16
2022-12-09T16:14:16.707Z,99882.52
2022-12-09T16:16:58.065Z,99873.94
2022-12-09T16:19:38.426Z,99869.14
2022-12-09T16:22:24.834Z,99874.11
2022-12-09T16:25:16.564Z,99876.02
2022-12-09T16:30:30.959Z,99877.77
2022-12-09T16:33:05.108Z,99881.19
2022-12-09T16:35:44.386Z,99876.61
2022-12-09T16:38:19.519Z,99882.16
2022-12-09T16:40:56.740Z,99882.16
2022-12-09T16:43:30.693Z,99885.58
2022-12-09T16:46:27.769Z,99895.27
2022-12-09T16:49:04.768Z,99900.53
2022-12-09T16:51:36.208Z,99888.86
2022-12-09T16:54:20.087Z,99887.89
2022-12-09T16:56:51.514Z,99890.80
2022-12-09T16:59:24.015Z,99892.50
2022-12-09T17:01:56.534Z,99884.84
2022-12-09T17:04:29.917Z,99879.95
2022-12-09T17:07:02.359Z,99877.87
2022-12-09T17:09:35.483Z,99877.18
2022-12-09T17:12:08.557Z,99878.74
2022-12-09T17:14:41.176Z,99877.00
2022-12-09T17:17:13.672Z,99887.34
2022-12-09T17:19:46.926Z,99887.70
2022-12-09T17:22:20.859Z,99884.84
2022-12-09T17:24:53.409Z,99886.37
2022-12-09T17:27:25.827Z,99883.83
2022-12-09T17:29:58.586Z,99890.02
2022-12-09T17:32:31.165Z,99881.80
2022-12-09T17:35:07.467Z,99877.78
2022-12-09T17:37:37.144Z,99883.04
2022-12-09T17:40:10.959Z,99881.23
2022-12-09T17:42:43.491Z,99873.85
2022-12-09T17:45:15.983Z,99871.86
2022-12-09T17:47:50.233Z,99870.02
2022-12-09T17:50:22.188Z,99868.88
2022-12-09T17:52:55.108Z,99866.69
2022-12-09T17:55:29.092Z,99866.69
2022-12-09T17:58:01.765Z,99860.00
2022-12-09T18:00:34.262Z,99858.84
2022-12-09T18:03:07.084Z,99855.02
2022-12-09T18:05:40.212Z,99860.00
2022-12-09T18:08:12.971Z,99852.52
2022-12-09T18:10:45.637Z,99847.73
2022-12-09T18:13:18.162Z,99840.84
2022-12-09T18:15:54.290Z,99839.14
2022-12-09T18:18:24.702Z,99837.42
2022-12-09T18:21:01.788Z,99836.27
2022-12-09T18:23:34.371Z,99835.59
2022-12-09T18:26:15.403Z,99839.32
2022-12-09T18:28:48.043Z,99830.42
2022-12-09T18:31:20.420Z,99838.17
2022-12-09T18:33:53.819Z,99832.81
2022-12-09T18:36:28.057Z,99830.88
2022-12-09T18:39:00.589Z,99832.81
2022-12-09T18:41:34.127Z,99754.22
2022-12-09T18:44:07.991Z,99834.52
2022-12-09T18:46:43.691Z,99843.24
2022-12-09T18:49:20.148Z,99839.13
2022-12-09T18:51:53.318Z,99838.17
2022-12-09T18:54:29.006Z,99849.25
2022-12-09T18:57:04.743Z,99844.86
2022-12-09T18:59:37.422Z,99848.78
2022-12-09T19:02:13.091Z,99845.33
2022-12-09T19:04:48.216Z,99847.36
2022-12-09T19:07:20.624Z,99841.22
2022-12-09T19:09:53.373Z,99840.48
2022-12-09T19:15:00.624Z,99832.34
2022-12-09T19:17:33.816Z,99832.34
2022-12-09T19:20:08.028Z,99833.13
2022-12-09T19:22:41.671Z,99833.31
2022-12-09T19:25:14.114Z,99830.54
2022-12-09T19:27:47.208Z,99835.80
2022-12-09T19:30:19.874Z,99835.70
2022-12-09T19:32:53.675Z,99827.27
2022-12-09T19:35:26.439Z,99821.73
2022-12-09T19:38:01.608Z,99821.64
2022-12-09T19:40:34.273Z,99811.67
2022-12-09T19:43:08.533Z,99803.46
2022-12-09T19:45:40.285Z,99813.61
2022-12-09T19:48:12.615Z,99812.73
2022-12-09T19:50:45.093Z,99808.53
2022-12-09T19:53:17.914Z,99814.85
2022-12-09T19:55:50.259Z,99808.53
2022-12-09T19:58:23.279Z,99807.38
2022-12-09T20:00:56.631Z,99815.23
2022-12-09T20:03:29.150Z,99818.74
2022-12-09T20:06:01.877Z,99821.73
2022-12-09T20:08:34.315Z,99816.66
2022-12-09T20:11:20.289Z,99818.09
2022-12-09T20:13:53.201Z,99817.91
2022-12-09T20:16:27.015Z,99809.12
2022-12-09T20:19:00.515Z,99805.10
2022-12-09T20:21:33.639Z,99807.38
2022-12-09T20:24:06.825Z,99796.66
2022-12-09T20:26:40.025Z,99797.06
2022-12-09T20:29:12.563Z,99783.17
2022-12-09T20:31:45.161Z,99794.39
2022-12-09T20:34:18.197Z,99793.42
2022-12-09T20:36:50.780Z,99793.14
2022-12-09T20:39:23.304Z,99792.27
2022-12-09T20:41:55.948Z,99785.20
2022-12-09T20:44:29.287Z,99781.38
2022-12-09T20:47:01.743Z,99792.75
2022-12-09T20:49:34.141Z,99789.89
2022-12-09T20:52:06.547Z,99792.56
2022-12-09T20:54:39.133Z,99780.61
2022-12-09T20:57:11.581Z,99788.92
2022-12-09T20:59:44.164Z,99794.48
2022-12-09T21:02:17.068Z,99805.85
2022-12-09T21:04:49.558Z,99796.85
2022-12-09T21:07:22.339Z,99806.03
2022-12-09T21:09:54.715Z,99816.19
2022-12-09T21:12:27.203Z,99803.48
2022-12-09T21:14:59.883Z,99803.75
2022-12-09T21:17:32.770Z,99809.11
2022-12-09T21:20:06.225Z,99816.18
2022-12-09T21:22:40.172Z,99820.20
2022-12-09T21:25:12.578Z,99813.21
2022-12-09T21:27:45.138Z,99815.80
2022-12-09T21:30:17.434Z,99811.78
2022-12-09T21:32:50.094Z,99801.63
2022-12-09T21:35:23.172Z,99796.87
2022-12-09T21:37:56.334Z,99788.23
2022-12-09T21:40:28.859Z,99790.91
2022-12-09T21:43:01.707Z,99791.11
2022-12-09T21:45:35.656Z,99793.05
2022-12-09T21:48:08.431Z,99791.98
2022-12-09T21:50:40.732Z,99793.69
2022-12-09T21:53:13.128Z,99787.49
2022-12-09T21:55:45.967Z,99779.92
2022-12-09T21:58:18.586Z,99772.58
2022-12-09T22:00:52.059Z,99775.05
2022-12-09T22:03:24.902Z,99760.05
2022-12-09T22:05:59.456Z,99763.09
2022-12-09T22:08:32.177Z,99762.72
2022-12-09T22:11:11.035Z,99756.90
2022-12-09T22:13:43.630Z,99756.03
2022-12-09T22:16:20.090Z,99749.05
2022-12-09T22:19:01.425Z,99752.48
2022-12-09T22:21:34.658Z,99749.34
2022-12-09T22:24:09.552Z,99744.18
2022-12-09T22:26:44.339Z,99746.37
2022-12-09T22:29:17.772Z,99738.75
2022-12-09T22:31:50.234Z,99741.52
2022-12-09T22:34:22.911Z,99742.77
2022-12-09T22:36:56.077Z,99739.59
2022-12-09T22:39:29.187Z,99742.77
2022-12-09T22:42:01.751Z,99747.25
2022-12-09T22:44:35.464Z,99737.41
2022-12-09T22:47:08.822Z,99725.64
2022-12-09T22:49:41.324Z,99722.00
2022-12-09T22:52:14.219Z,99726.52
2022-12-09T22:54:47.408Z,99724.11
2022-12-09T22:57:19.803Z,99720.38
2022-12-09T22:59:53.337Z,99719.59
2022-12-09T23:02:26.248Z,99709.39
2022-12-09T23:04:58.851Z,99721.90
2022-12-09T23:07:31.428Z,99731.46
2022-12-09T23:10:04.383Z,99731.46
2022-12-09T23:12:37.449Z,99727.16
2022-12-09T23:15:11.047Z,99716.92
2022-12-09T23:17:43.666Z,99713.97
2022-12-09T23:20:16.954Z,99716.37
2022-12-09T23:22:49.359Z,99706.80
2022-12-09T23:25:22.177Z,99719.03
2022-12-09T23:27:54.901Z,99736.61
2022-12-09T23:30:28.328Z,99728.98
2022-12-09T23:33:00.865Z,99731.36
2022-12-09T23:35:33.723Z,99722.39
2022-12-09T23:38:06.399Z,99728.67
2022-12-09T23:40:39.111Z,99728.98
2022-12-09T23:43:11.530Z,99719.71
2022-12-09T23:45:44.202Z,99714.36
2022-12-09T23:48:16.638Z,99719.91
2022-12-09T23:50:50.342Z,99723.42
2022-12-09T23:53:23.526Z,99716.16
2022-12-09T23:55:56.552Z,99720.77
2022-12-09T23:58:29.029Z,99722.94
